Garland, Texas
Current Conditions -  °F | °C
As of 11:47 AM on Monday 26 Jan 2015 (Local Time) from KADS Reporting Station
Clear Clear  
Wind Chill: 57°   Ceiling: Unl
Heat Index: 57°   Visibility: 13mi
Dew Point: 28°   Wind: 6mph
Humidity: 33%   Direction: 190°S
Pressure: 30.2"   Gusts: NA
Location:  32.91°N, 96.64°W
Report Text: KADS 261747Z 19005KT 13SM SKC 14/M02 A3020
Loading
Personal Weather Stations






























Interactive Weather Map New forecast layout! Learn more

10-Day Weather Forecast

Advertisements
Track Severe Weather on mobile